sensor_id;sensor_type;location;lat;lon;timestamp;temperature;humidity
16271;DHT22;8243;49.048;8.396;2023-12-20T00:00:20;6.00;99.90
16271;DHT22;8243;49.048;8.396;2023-12-20T00:02:45;5.90;99.90
16271;DHT22;8243;49.048;8.396;2023-12-20T00:05:13;5.70;99.90
16271;DHT22;8243;49.048;8.396;2023-12-20T00:07:39;5.90;99.90
16271;DHT22;8243;49.048;8.396;2023-12-20T00:10:05;6.00;99.90
16271;DHT22;8243;49.048;8.396;2023-12-20T00:12:30;5.90;99.90
16271;DHT22;8243;49.048;8.396;2023-12-20T00:14:56;5.90;99.90
16271;DHT22;8243;49.048;8.396;2023-12-20T00:17:21;5.90;99.90
16271;DHT22;8243;49.048;8.396;2023-12-20T00:19:47;5.60;99.90
16271;DHT22;8243;49.048;8.396;2023-12-20T00:22:12;5.90;99.90
16271;DHT22;8243;49.048;8.396;2023-12-20T00:24:38;6.00;99.90
16271;DHT22;8243;49.048;8.396;2023-12-20T00:27:04;5.90;99.90
16271;DHT22;8243;49.048;8.396;2023-12-20T00:29:29;5.80;99.90
16271;DHT22;8243;49.048;8.396;2023-12-20T00:31:55;5.90;99.90
16271;DHT22;8243;49.048;8.396;2023-12-20T00:34:20;5.90;99.90
16271;DHT22;8243;49.048;8.396;2023-12-20T00:36:46;6.10;99.90
16271;DHT22;8243;49.048;8.396;2023-12-20T00:39:12;6.00;99.90
16271;DHT22;8243;49.048;8.396;2023-12-20T00:41:38;5.90;99.90
16271;DHT22;8243;49.048;8.396;2023-12-20T00:44:04;6.10;99.90
16271;DHT22;8243;49.048;8.396;2023-12-20T00:46:29;5.90;99.90
16271;DHT22;8243;49.048;8.396;2023-12-20T00:48:55;5.80;99.90
16271;DHT22;8243;49.048;8.396;2023-12-20T00:51:20;5.90;99.90
16271;DHT22;8243;49.048;8.396;2023-12-20T00:53:48;5.90;99.90
16271;DHT22;8243;49.048;8.396;2023-12-20T00:56:14;5.70;99.90
16271;DHT22;8243;49.048;8.396;2023-12-20T00:58:40;6.00;99.90
16271;DHT22;8243;49.048;8.396;2023-12-20T01:01:05;5.80;99.90
16271;DHT22;8243;49.048;8.396;2023-12-20T01:03:31;5.70;99.90
16271;DHT22;8243;49.048;8.396;2023-12-20T01:05:57;5.90;99.90
16271;DHT22;8243;49.048;8.396;2023-12-20T01:08:22;6.00;99.90
16271;DHT22;8243;49.048;8.396;2023-12-20T01:10:48;5.90;99.90
16271;DHT22;8243;49.048;8.396;2023-12-20T01:13:13;5.90;99.90
16271;DHT22;8243;49.048;8.396;2023-12-20T01:15:39;5.60;99.90
16271;DHT22;8243;49.048;8.396;2023-12-20T01:18:05;5.90;99.90
16271;DHT22;8243;49.048;8.396;2023-12-20T01:20:30;5.90;99.90
16271;DHT22;8243;49.048;8.396;2023-12-20T01:22:56;5.90;99.90
16271;DHT22;8243;49.048;8.396;2023-12-20T01:25:22;6.00;99.90
16271;DHT22;8243;49.048;8.396;2023-12-20T01:27:47;5.90;99.90
16271;DHT22;8243;49.048;8.396;2023-12-20T01:30:14;5.80;99.90
16271;DHT22;8243;49.048;8.396;2023-12-20T01:32:40;6.00;99.90
16271;DHT22;8243;49.048;8.396;2023-12-20T01:35:06;5.90;99.90
16271;DHT22;8243;49.048;8.396;2023-12-20T01:37:31;5.90;99.90
16271;DHT22;8243;49.048;8.396;2023-12-20T01:39:57;5.80;99.90
16271;DHT22;8243;49.048;8.396;2023-12-20T01:42:24;5.90;99.90
16271;DHT22;8243;49.048;8.396;2023-12-20T01:44:49;6.10;99.90
16271;DHT22;8243;49.048;8.396;2023-12-20T01:47:15;5.90;99.90
16271;DHT22;8243;49.048;8.396;2023-12-20T01:49:40;5.60;99.90
16271;DHT22;8243;49.048;8.396;2023-12-20T01:52:07;6.10;99.90
16271;DHT22;8243;49.048;8.396;2023-12-20T01:54:34;6.00;99.90
16271;DHT22;8243;49.048;8.396;2023-12-20T01:57:01;5.60;99.90
16271;DHT22;8243;49.048;8.396;2023-12-20T01:59:28;6.00;99.90
16271;DHT22;8243;49.048;8.396;2023-12-20T02:01:54;6.10;99.90
16271;DHT22;8243;49.048;8.396;2023-12-20T02:04:20;5.90;99.90
16271;DHT22;8243;49.048;8.396;2023-12-20T02:06:46;5.80;99.90
16271;DHT22;8243;49.048;8.396;2023-12-20T02:09:12;6.00;99.90
16271;DHT22;8243;49.048;8.396;2023-12-20T02:11:38;6.00;99.90
16271;DHT22;8243;49.048;8.396;2023-12-20T02:14:03;5.90;99.90
16271;DHT22;8243;49.048;8.396;2023-12-20T02:16:29;5.80;99.90
16271;DHT22;8243;49.048;8.396;2023-12-20T02:18:55;5.90;99.90
16271;DHT22;8243;49.048;8.396;2023-12-20T02:21:33;5.90;99.90
16271;DHT22;8243;49.048;8.396;2023-12-20T02:24:00;5.90;99.90
16271;DHT22;8243;49.048;8.396;2023-12-20T02:26:25;5.90;99.90
16271;DHT22;8243;49.048;8.396;2023-12-20T02:28:51;6.00;99.90
16271;DHT22;8243;49.048;8.396;2023-12-20T02:31:21;6.00;99.90
16271;DHT22;8243;49.048;8.396;2023-12-20T02:33:49;5.90;99.90
16271;DHT22;8243;49.048;8.396;2023-12-20T02:36:14;5.80;99.90
16271;DHT22;8243;49.048;8.396;2023-12-20T02:38:40;5.60;99.90
16271;DHT22;8243;49.048;8.396;2023-12-20T02:41:05;5.90;99.90
16271;DHT22;8243;49.048;8.396;2023-12-20T02:43:31;5.90;99.90
16271;DHT22;8243;49.048;8.396;2023-12-20T02:45:57;5.90;99.90
16271;DHT22;8243;49.048;8.396;2023-12-20T02:48:22;5.90;99.90
16271;DHT22;8243;49.048;8.396;2023-12-20T02:50:48;5.90;99.90
16271;DHT22;8243;49.048;8.396;2023-12-20T02:53:14;6.00;99.90
16271;DHT22;8243;49.048;8.396;2023-12-20T02:55:40;5.90;99.90
16271;DHT22;8243;49.048;8.396;2023-12-20T02:58:05;5.70;99.90
16271;DHT22;8243;49.048;8.396;2023-12-20T03:00:31;6.10;99.90
16271;DHT22;8243;49.048;8.396;2023-12-20T03:02:56;6.00;99.90
16271;DHT22;8243;49.048;8.396;2023-12-20T03:05:22;6.00;99.90
16271;DHT22;8243;49.048;8.396;2023-12-20T03:07:47;6.10;99.90
16271;DHT22;8243;49.048;8.396;2023-12-20T03:10:13;6.00;99.90
16271;DHT22;8243;49.048;8.396;2023-12-20T03:12:39;6.10;99.90
16271;DHT22;8243;49.048;8.396;2023-12-20T03:15:06;6.10;99.90
16271;DHT22;8243;49.048;8.396;2023-12-20T03:17:32;6.10;99.90
16271;DHT22;8243;49.048;8.396;2023-12-20T03:19:57;5.70;99.90
16271;DHT22;8243;49.048;8.396;2023-12-20T03:22:23;6.00;99.90
16271;DHT22;8243;49.048;8.396;2023-12-20T03:24:48;6.20;99.90
16271;DHT22;8243;49.048;8.396;2023-12-20T03:27:14;6.00;99.90
16271;DHT22;8243;49.048;8.396;2023-12-20T03:29:39;6.00;99.90
16271;DHT22;8243;49.048;8.396;2023-12-20T03:32:05;6.00;99.90
16271;DHT22;8243;49.048;8.396;2023-12-20T03:34:31;6.00;99.90
16271;DHT22;8243;49.048;8.396;2023-12-20T03:36:56;6.10;99.90
16271;DHT22;8243;49.048;8.396;2023-12-20T03:39:22;6.00;99.90
16271;DHT22;8243;49.048;8.396;2023-12-20T03:41:47;6.10;99.90
16271;DHT22;8243;49.048;8.396;2023-12-20T03:44:13;6.10;99.90
16271;DHT22;8243;49.048;8.396;2023-12-20T03:46:38;6.00;99.90
16271;DHT22;8243;49.048;8.396;2023-12-20T03:49:04;6.10;99.90
16271;DHT22;8243;49.048;8.396;2023-12-20T03:51:29;6.00;99.90
16271;DHT22;8243;49.048;8.396;2023-12-20T03:53:55;6.00;99.90
16271;DHT22;8243;49.048;8.396;2023-12-20T03:56:20;6.00;99.90
16271;DHT22;8243;49.048;8.396;2023-12-20T03:58:46;6.20;99.90
16271;DHT22;8243;49.048;8.396;2023-12-20T04:01:12;6.00;99.90
16271;DHT22;8243;49.048;8.396;2023-12-20T04:03:38;6.20;99.90
16271;DHT22;8243;49.048;8.396;2023-12-20T04:06:04;6.10;99.90
16271;DHT22;8243;49.048;8.396;2023-12-20T04:08:29;6.00;99.90
16271;DHT22;8243;49.048;8.396;2023-12-20T04:10:55;6.20;99.90
16271;DHT22;8243;49.048;8.396;2023-12-20T04:13:20;6.10;99.90
16271;DHT22;8243;49.048;8.396;2023-12-20T04:15:46;6.10;99.90
16271;DHT22;8243;49.048;8.396;2023-12-20T04:18:12;6.20;99.90
16271;DHT22;8243;49.048;8.396;2023-12-20T04:20:37;6.00;99.90
16271;DHT22;8243;49.048;8.396;2023-12-20T04:23:03;6.10;99.90
16271;DHT22;8243;49.048;8.396;2023-12-20T04:25:28;6.10;99.90
16271;DHT22;8243;49.048;8.396;2023-12-20T04:27:54;6.10;99.90
16271;DHT22;8243;49.048;8.396;2023-12-20T04:30:20;6.10;99.90
16271;DHT22;8243;49.048;8.396;2023-12-20T04:32:45;6.20;99.90
16271;DHT22;8243;49.048;8.396;2023-12-20T04:35:11;6.30;99.90
16271;DHT22;8243;49.048;8.396;2023-12-20T04:37:36;6.30;99.90
16271;DHT22;8243;49.048;8.396;2023-12-20T04:40:02;6.20;99.90
16271;DHT22;8243;49.048;8.396;2023-12-20T04:42:28;6.20;99.90
16271;DHT22;8243;49.048;8.396;2023-12-20T04:44:53;5.90;99.90
16271;DHT22;8243;49.048;8.396;2023-12-20T04:47:19;6.20;99.90
16271;DHT22;8243;49.048;8.396;2023-12-20T04:49:44;6.20;99.90
16271;DHT22;8243;49.048;8.396;2023-12-20T04:52:10;6.20;99.90
16271;DHT22;8243;49.048;8.396;2023-12-20T04:54:35;6.20;99.90
16271;DHT22;8243;49.048;8.396;2023-12-20T04:57:01;6.10;99.90
16271;DHT22;8243;49.048;8.396;2023-12-20T04:59:26;6.40;99.90
16271;DHT22;8243;49.048;8.396;2023-12-20T05:01:52;6.30;99.90
16271;DHT22;8243;49.048;8.396;2023-12-20T05:04:17;6.30;99.90
16271;DHT22;8243;49.048;8.396;2023-12-20T05:06:43;6.30;99.90
16271;DHT22;8243;49.048;8.396;2023-12-20T05:09:08;6.00;99.90
16271;DHT22;8243;49.048;8.396;2023-12-20T05:11:34;6.30;99.90
16271;DHT22;8243;49.048;8.396;2023-12-20T05:14:00;6.30;99.90
16271;DHT22;8243;49.048;8.396;2023-12-20T05:16:25;6.30;99.90
16271;DHT22;8243;49.048;8.396;2023-12-20T05:18:51;6.30;99.90
16271;DHT22;8243;49.048;8.396;2023-12-20T05:21:17;6.20;99.90
16271;DHT22;8243;49.048;8.396;2023-12-20T05:23:43;6.30;99.90
16271;DHT22;8243;49.048;8.396;2023-12-20T05:26:09;6.30;99.90
16271;DHT22;8243;49.048;8.396;2023-12-20T05:28:34;6.30;99.90
16271;DHT22;8243;49.048;8.396;2023-12-20T05:31:00;6.20;99.90
16271;DHT22;8243;49.048;8.396;2023-12-20T05:33:25;6.30;99.90
16271;DHT22;8243;49.048;8.396;2023-12-20T05:35:51;6.30;99.90
16271;DHT22;8243;49.048;8.396;2023-12-20T05:38:17;6.30;99.90
16271;DHT22;8243;49.048;8.396;2023-12-20T05:40:42;6.10;99.90
16271;DHT22;8243;49.048;8.396;2023-12-20T05:43:08;6.30;99.90
16271;DHT22;8243;49.048;8.396;2023-12-20T05:45:33;6.10;99.90
16271;DHT22;8243;49.048;8.396;2023-12-20T05:47:59;6.30;99.90
16271;DHT22;8243;49.048;8.396;2023-12-20T05:50:25;6.30;99.90
16271;DHT22;8243;49.048;8.396;2023-12-20T05:52:51;6.30;99.90
16271;DHT22;8243;49.048;8.396;2023-12-20T05:55:16;6.30;99.90
16271;DHT22;8243;49.048;8.396;2023-12-20T05:57:42;6.30;99.90
16271;DHT22;8243;49.048;8.396;2023-12-20T06:00:09;6.40;99.90
16271;DHT22;8243;49.048;8.396;2023-12-20T06:02:35;6.40;99.90
16271;DHT22;8243;49.048;8.396;2023-12-20T06:05:03;6.40;99.90
16271;DHT22;8243;49.048;8.396;2023-12-20T06:07:29;6.40;99.90
16271;DHT22;8243;49.048;8.396;2023-12-20T06:09:55;6.40;99.90
16271;DHT22;8243;49.048;8.396;2023-12-20T06:12:20;6.30;99.90
16271;DHT22;8243;49.048;8.396;2023-12-20T06:14:46;6.20;99.90
16271;DHT22;8243;49.048;8.396;2023-12-20T06:17:11;6.40;99.90
16271;DHT22;8243;49.048;8.396;2023-12-20T06:19:37;6.40;99.90
16271;DHT22;8243;49.048;8.396;2023-12-20T06:22:03;6.50;99.90
16271;DHT22;8243;49.048;8.396;2023-12-20T06:24:28;6.30;99.90
16271;DHT22;8243;49.048;8.396;2023-12-20T06:26:54;6.40;99.90
16271;DHT22;8243;49.048;8.396;2023-12-20T06:29:20;6.40;99.90
16271;DHT22;8243;49.048;8.396;2023-12-20T06:31:46;6.40;99.90
16271;DHT22;8243;49.048;8.396;2023-12-20T06:34:11;6.40;99.90
16271;DHT22;8243;49.048;8.396;2023-12-20T06:36:37;6.40;99.90
16271;DHT22;8243;49.048;8.396;2023-12-20T06:39:03;6.40;99.90
16271;DHT22;8243;49.048;8.396;2023-12-20T06:41:30;6.40;99.90
16271;DHT22;8243;49.048;8.396;2023-12-20T06:43:55;6.50;99.90
16271;DHT22;8243;49.048;8.396;2023-12-20T06:46:21;6.10;99.90
16271;DHT22;8243;49.048;8.396;2023-12-20T06:48:46;6.00;99.90
16271;DHT22;8243;49.048;8.396;2023-12-20T06:51:16;6.20;99.90
16271;DHT22;8243;49.048;8.396;2023-12-20T06:53:43;6.00;99.90
16271;DHT22;8243;49.048;8.396;2023-12-20T06:56:10;6.20;99.90
16271;DHT22;8243;49.048;8.396;2023-12-20T06:58:36;6.00;99.90
16271;DHT22;8243;49.048;8.396;2023-12-20T07:01:03;5.90;99.90
16271;DHT22;8243;49.048;8.396;2023-12-20T07:03:29;5.90;99.90
16271;DHT22;8243;49.048;8.396;2023-12-20T07:05:55;5.60;99.90
16271;DHT22;8243;49.048;8.396;2023-12-20T07:08:20;5.60;99.90
16271;DHT22;8243;49.048;8.396;2023-12-20T07:10:46;5.70;99.90
16271;DHT22;8243;49.048;8.396;2023-12-20T07:13:12;5.40;99.90
16271;DHT22;8243;49.048;8.396;2023-12-20T07:15:38;5.40;99.90
16271;DHT22;8243;49.048;8.396;2023-12-20T07:18:04;5.50;99.90
16271;DHT22;8243;49.048;8.396;2023-12-20T07:20:30;5.40;99.90
16271;DHT22;8243;49.048;8.396;2023-12-20T07:22:56;5.40;99.90
16271;DHT22;8243;49.048;8.396;2023-12-20T07:25:21;5.30;99.90
16271;DHT22;8243;49.048;8.396;2023-12-20T07:27:47;5.40;99.90
16271;DHT22;8243;49.048;8.396;2023-12-20T07:30:12;5.40;99.90
16271;DHT22;8243;49.048;8.396;2023-12-20T07:32:38;5.10;99.90
16271;DHT22;8243;49.048;8.396;2023-12-20T07:35:04;5.20;99.90
16271;DHT22;8243;49.048;8.396;2023-12-20T07:37:30;5.20;99.90
16271;DHT22;8243;49.048;8.396;2023-12-20T07:39:56;5.10;99.90
16271;DHT22;8243;49.048;8.396;2023-12-20T07:42:22;5.20;99.90
16271;DHT22;8243;49.048;8.396;2023-12-20T07:44:47;5.00;99.90
16271;DHT22;8243;49.048;8.396;2023-12-20T07:47:13;5.10;99.90
16271;DHT22;8243;49.048;8.396;2023-12-20T07:49:42;5.10;99.90
16271;DHT22;8243;49.048;8.396;2023-12-20T07:52:08;5.10;99.90
16271;DHT22;8243;49.048;8.396;2023-12-20T07:54:33;5.10;99.90
16271;DHT22;8243;49.048;8.396;2023-12-20T07:56:59;5.20;99.90
16271;DHT22;8243;49.048;8.396;2023-12-20T07:59:26;5.20;99.90
16271;DHT22;8243;49.048;8.396;2023-12-20T08:01:52;5.20;99.90
16271;DHT22;8243;49.048;8.396;2023-12-20T08:04:19;5.90;99.90
16271;DHT22;8243;49.048;8.396;2023-12-20T08:06:44;6.30;99.90
16271;DHT22;8243;49.048;8.396;2023-12-20T08:09:10;6.50;99.90
16271;DHT22;8243;49.048;8.396;2023-12-20T08:11:36;7.00;99.90
16271;DHT22;8243;49.048;8.396;2023-12-20T08:14:02;7.00;99.90
16271;DHT22;8243;49.048;8.396;2023-12-20T08:16:28;7.30;99.90
16271;DHT22;8243;49.048;8.396;2023-12-20T08:18:53;7.20;99.90
16271;DHT22;8243;49.048;8.396;2023-12-20T08:21:19;7.00;99.90
16271;DHT22;8243;49.048;8.396;2023-12-20T08:23:48;6.70;99.90
16271;DHT22;8243;49.048;8.396;2023-12-20T08:26:13;6.50;99.90
16271;DHT22;8243;49.048;8.396;2023-12-20T08:28:39;6.50;99.90
16271;DHT22;8243;49.048;8.396;2023-12-20T08:31:04;6.60;99.90
16271;DHT22;8243;49.048;8.396;2023-12-20T08:33:30;6.90;99.90
16271;DHT22;8243;49.048;8.396;2023-12-20T08:35:56;7.80;99.90
16271;DHT22;8243;49.048;8.396;2023-12-20T08:38:21;8.50;99.90
16271;DHT22;8243;49.048;8.396;2023-12-20T08:40:47;9.30;99.90
16271;DHT22;8243;49.048;8.396;2023-12-20T08:43:13;9.60;99.90
16271;DHT22;8243;49.048;8.396;2023-12-20T08:45:39;9.90;99.90
16271;DHT22;8243;49.048;8.396;2023-12-20T08:48:05;9.90;99.90
16271;DHT22;8243;49.048;8.396;2023-12-20T08:50:31;10.10;99.90
16271;DHT22;8243;49.048;8.396;2023-12-20T08:52:58;10.40;99.90
16271;DHT22;8243;49.048;8.396;2023-12-20T08:55:23;10.60;99.90
16271;DHT22;8243;49.048;8.396;2023-12-20T08:57:49;10.80;99.90
16271;DHT22;8243;49.048;8.396;2023-12-20T09:00:16;10.80;99.90
16271;DHT22;8243;49.048;8.396;2023-12-20T09:02:41;10.70;99.90
16271;DHT22;8243;49.048;8.396;2023-12-20T09:05:07;10.50;99.90
16271;DHT22;8243;49.048;8.396;2023-12-20T09:07:33;10.90;97.70
16271;DHT22;8243;49.048;8.396;2023-12-20T09:09:58;11.00;94.00
16271;DHT22;8243;49.048;8.396;2023-12-20T09:12:24;11.10;92.00
16271;DHT22;8243;49.048;8.396;2023-12-20T09:14:51;11.00;91.00
16271;DHT22;8243;49.048;8.396;2023-12-20T09:17:17;10.90;87.60
16271;DHT22;8243;49.048;8.396;2023-12-20T09:19:44;10.90;86.30
16271;DHT22;8243;49.048;8.396;2023-12-20T09:22:26;10.70;86.90
16271;DHT22;8243;49.048;8.396;2023-12-20T09:24:55;10.90;81.80
16271;DHT22;8243;49.048;8.396;2023-12-20T09:27:20;11.10;79.90
16271;DHT22;8243;49.048;8.396;2023-12-20T09:29:46;11.10;77.20
16271;DHT22;8243;49.048;8.396;2023-12-20T09:32:13;11.00;72.80
16271;DHT22;8243;49.048;8.396;2023-12-20T09:34:46;10.80;73.30
16271;DHT22;8243;49.048;8.396;2023-12-20T09:37:13;10.40;72.20
16271;DHT22;8243;49.048;8.396;2023-12-20T09:39:39;10.70;70.00
16271;DHT22;8243;49.048;8.396;2023-12-20T09:42:05;10.70;68.50
16271;DHT22;8243;49.048;8.396;2023-12-20T09:44:32;10.50;65.10
16271;DHT22;8243;49.048;8.396;2023-12-20T09:47:03;10.30;65.20
16271;DHT22;8243;49.048;8.396;2023-12-20T09:49:29;10.10;66.60
16271;DHT22;8243;49.048;8.396;2023-12-20T09:51:56;9.90;68.90
16271;DHT22;8243;49.048;8.396;2023-12-20T09:54:23;9.80;68.60
16271;DHT22;8243;49.048;8.396;2023-12-20T09:56:56;9.70;69.90
16271;DHT22;8243;49.048;8.396;2023-12-20T09:59:21;9.30;71.00
16271;DHT22;8243;49.048;8.396;2023-12-20T10:01:48;8.90;75.70
16271;DHT22;8243;49.048;8.396;2023-12-20T10:04:15;8.50;81.70
16271;DHT22;8243;49.048;8.396;2023-12-20T10:06:41;8.50;89.30
16271;DHT22;8243;49.048;8.396;2023-12-20T10:09:07;8.50;90.60
16271;DHT22;8243;49.048;8.396;2023-12-20T10:11:35;8.20;92.20
16271;DHT22;8243;49.048;8.396;2023-12-20T10:14:02;8.10;93.90
16271;DHT22;8243;49.048;8.396;2023-12-20T10:16:28;8.00;94.80
16271;DHT22;8243;49.048;8.396;2023-12-20T10:18:55;7.90;95.70
16271;DHT22;8243;49.048;8.396;2023-12-20T10:21:21;7.80;96.00
16271;DHT22;8243;49.048;8.396;2023-12-20T10:23:48;7.80;95.20
16271;DHT22;8243;49.048;8.396;2023-12-20T10:26:27;7.70;96.90
16271;DHT22;8243;49.048;8.396;2023-12-20T10:28:56;7.60;97.10
16271;DHT22;8243;49.048;8.396;2023-12-20T10:31:32;7.60;97.60
16271;DHT22;8243;49.048;8.396;2023-12-20T10:33:59;7.60;96.70
16271;DHT22;8243;49.048;8.396;2023-12-20T10:36:42;7.50;97.70
16271;DHT22;8243;49.048;8.396;2023-12-20T10:39:10;7.50;99.10
16271;DHT22;8243;49.048;8.396;2023-12-20T10:41:37;7.50;99.20
16271;DHT22;8243;49.048;8.396;2023-12-20T10:44:06;7.40;99.10
16271;DHT22;8243;49.048;8.396;2023-12-20T10:46:33;7.40;99.90
16271;DHT22;8243;49.048;8.396;2023-12-20T10:49:03;7.50;99.90
16271;DHT22;8243;49.048;8.396;2023-12-20T10:51:30;7.50;99.40
16271;DHT22;8243;49.048;8.396;2023-12-20T10:53:56;7.50;99.90
16271;DHT22;8243;49.048;8.396;2023-12-20T10:56:22;7.40;99.60
16271;DHT22;8243;49.048;8.396;2023-12-20T10:58:51;7.60;99.80
16271;DHT22;8243;49.048;8.396;2023-12-20T11:01:18;7.80;96.60
16271;DHT22;8243;49.048;8.396;2023-12-20T11:03:52;8.00;96.20
16271;DHT22;8243;49.048;8.396;2023-12-20T11:09:17;8.30;90.50
16271;DHT22;8243;49.048;8.396;2023-12-20T11:12:09;8.30;90.30
16271;DHT22;8243;49.048;8.396;2023-12-20T11:14:45;8.30;89.20
16271;DHT22;8243;49.048;8.396;2023-12-20T11:17:12;8.20;90.40
16271;DHT22;8243;49.048;8.396;2023-12-20T11:22:24;8.10;88.60
16271;DHT22;8243;49.048;8.396;2023-12-20T11:24:53;8.00;90.00
16271;DHT22;8243;49.048;8.396;2023-12-20T11:27:21;7.90;89.90
16271;DHT22;8243;49.048;8.396;2023-12-20T11:29:54;7.80;90.70
16271;DHT22;8243;49.048;8.396;2023-12-20T11:34:57;7.80;91.60
16271;DHT22;8243;49.048;8.396;2023-12-20T11:37:45;7.80;91.30
16271;DHT22;8243;49.048;8.396;2023-12-20T11:40:15;7.90;91.40
16271;DHT22;8243;49.048;8.396;2023-12-20T11:42:42;7.90;91.60
16271;DHT22;8243;49.048;8.396;2023-12-20T11:45:16;7.80;93.10
16271;DHT22;8243;49.048;8.396;2023-12-20T11:47:43;7.80;94.90
16271;DHT22;8243;49.048;8.396;2023-12-20T11:50:10;7.70;98.40
16271;DHT22;8243;49.048;8.396;2023-12-20T11:52:36;7.60;99.90
16271;DHT22;8243;49.048;8.396;2023-12-20T11:55:02;7.70;99.90
16271;DHT22;8243;49.048;8.396;2023-12-20T11:57:29;7.80;99.90
16271;DHT22;8243;49.048;8.396;2023-12-20T11:59:55;7.80;99.90
16271;DHT22;8243;49.048;8.396;2023-12-20T12:02:21;7.80;99.90
16271;DHT22;8243;49.048;8.396;2023-12-20T12:04:48;7.80;99.90
16271;DHT22;8243;49.048;8.396;2023-12-20T12:07:14;7.80;99.90
16271;DHT22;8243;49.048;8.396;2023-12-20T12:09:39;7.70;99.90
16271;DHT22;8243;49.048;8.396;2023-12-20T12:12:08;7.70;99.90
16271;DHT22;8243;49.048;8.396;2023-12-20T12:14:33;7.70;99.90
16271;DHT22;8243;49.048;8.396;2023-12-20T12:17:00;7.70;99.90
16271;DHT22;8243;49.048;8.396;2023-12-20T12:19:26;7.60;99.90
16271;DHT22;8243;49.048;8.396;2023-12-20T12:22:05;7.60;99.90
16271;DHT22;8243;49.048;8.396;2023-12-20T12:24:38;7.70;99.90
16271;DHT22;8243;49.048;8.396;2023-12-20T12:27:06;7.80;99.90
16271;DHT22;8243;49.048;8.396;2023-12-20T12:29:32;7.80;99.90
16271;DHT22;8243;49.048;8.396;2023-12-20T12:31:59;7.80;99.90
16271;DHT22;8243;49.048;8.396;2023-12-20T12:34:27;7.90;99.90
16271;DHT22;8243;49.048;8.396;2023-12-20T12:36:53;7.80;99.90
16271;DHT22;8243;49.048;8.396;2023-12-20T12:39:18;7.70;99.90
16271;DHT22;8243;49.048;8.396;2023-12-20T12:41:44;7.70;99.90
16271;DHT22;8243;49.048;8.396;2023-12-20T12:44:10;7.70;99.90
16271;DHT22;8243;49.048;8.396;2023-12-20T12:46:35;7.70;99.90
16271;DHT22;8243;49.048;8.396;2023-12-20T12:49:01;7.60;99.90
16271;DHT22;8243;49.048;8.396;2023-12-20T12:51:26;7.60;99.90
16271;DHT22;8243;49.048;8.396;2023-12-20T12:53:53;7.60;99.40
16271;DHT22;8243;49.048;8.396;2023-12-20T12:56:19;7.60;99.30
16271;DHT22;8243;49.048;8.396;2023-12-20T12:58:45;7.50;99.50
16271;DHT22;8243;49.048;8.396;2023-12-20T13:01:11;7.50;99.50
16271;DHT22;8243;49.048;8.396;2023-12-20T13:03:37;7.40;98.90
16271;DHT22;8243;49.048;8.396;2023-12-20T13:06:03;7.40;99.20
16271;DHT22;8243;49.048;8.396;2023-12-20T13:08:31;7.40;99.30
16271;DHT22;8243;49.048;8.396;2023-12-20T13:10:56;7.40;99.90
16271;DHT22;8243;49.048;8.396;2023-12-20T13:13:28;7.30;99.90
16271;DHT22;8243;49.048;8.396;2023-12-20T13:15:54;7.30;99.90
16271;DHT22;8243;49.048;8.396;2023-12-20T13:18:21;7.30;99.90
16271;DHT22;8243;49.048;8.396;2023-12-20T13:20:47;7.30;99.90
16271;DHT22;8243;49.048;8.396;2023-12-20T13:23:13;7.30;99.90
16271;DHT22;8243;49.048;8.396;2023-12-20T13:25:39;7.20;99.90
16271;DHT22;8243;49.048;8.396;2023-12-20T13:28:04;7.20;99.90
16271;DHT22;8243;49.048;8.396;2023-12-20T13:30:30;7.20;99.90
16271;DHT22;8243;49.048;8.396;2023-12-20T13:32:56;7.20;99.90
16271;DHT22;8243;49.048;8.396;2023-12-20T13:35:22;7.20;99.90
16271;DHT22;8243;49.048;8.396;2023-12-20T13:37:48;7.20;99.90
16271;DHT22;8243;49.048;8.396;2023-12-20T13:40:14;7.20;99.90
16271;DHT22;8243;49.048;8.396;2023-12-20T13:42:40;7.20;99.90
16271;DHT22;8243;49.048;8.396;2023-12-20T13:45:06;7.20;99.90
16271;DHT22;8243;49.048;8.396;2023-12-20T13:47:32;7.20;99.90
16271;DHT22;8243;49.048;8.396;2023-12-20T13:49:58;7.20;99.90
16271;DHT22;8243;49.048;8.396;2023-12-20T13:52:23;7.20;99.90
16271;DHT22;8243;49.048;8.396;2023-12-20T13:54:49;7.30;99.90
16271;DHT22;8243;49.048;8.396;2023-12-20T13:57:15;7.30;99.90
16271;DHT22;8243;49.048;8.396;2023-12-20T13:59:41;7.30;99.90
16271;DHT22;8243;49.048;8.396;2023-12-20T14:02:07;7.30;99.90
16271;DHT22;8243;49.048;8.396;2023-12-20T14:04:33;7.30;99.90
16271;DHT22;8243;49.048;8.396;2023-12-20T14:06:58;7.30;99.90
16271;DHT22;8243;49.048;8.396;2023-12-20T14:09:24;7.20;99.90
16271;DHT22;8243;49.048;8.396;2023-12-20T14:11:50;7.20;99.90
16271;DHT22;8243;49.048;8.396;2023-12-20T14:14:15;7.20;99.90
16271;DHT22;8243;49.048;8.396;2023-12-20T14:16:41;7.20;99.90
16271;DHT22;8243;49.048;8.396;2023-12-20T14:19:10;7.20;99.90
16271;DHT22;8243;49.048;8.396;2023-12-20T14:21:36;7.20;99.90
16271;DHT22;8243;49.048;8.396;2023-12-20T14:24:01;7.20;99.90
16271;DHT22;8243;49.048;8.396;2023-12-20T14:26:27;7.30;99.90
16271;DHT22;8243;49.048;8.396;2023-12-20T14:28:53;7.20;99.90
16271;DHT22;8243;49.048;8.396;2023-12-20T14:31:19;7.20;99.90
16271;DHT22;8243;49.048;8.396;2023-12-20T14:33:44;7.20;99.90
16271;DHT22;8243;49.048;8.396;2023-12-20T14:36:11;7.20;99.90
16271;DHT22;8243;49.048;8.396;2023-12-20T14:38:37;7.10;99.90
16271;DHT22;8243;49.048;8.396;2023-12-20T14:41:03;7.10;99.90
16271;DHT22;8243;49.048;8.396;2023-12-20T14:43:29;7.10;99.90
16271;DHT22;8243;49.048;8.396;2023-12-20T14:45:55;7.10;99.90
16271;DHT22;8243;49.048;8.396;2023-12-20T14:48:20;7.10;99.90
16271;DHT22;8243;49.048;8.396;2023-12-20T14:50:47;7.10;99.90
16271;DHT22;8243;49.048;8.396;2023-12-20T14:53:14;7.10;99.90
16271;DHT22;8243;49.048;8.396;2023-12-20T14:55:42;7.10;99.90
16271;DHT22;8243;49.048;8.396;2023-12-20T14:58:07;7.00;99.90
16271;DHT22;8243;49.048;8.396;2023-12-20T15:00:33;7.00;99.90
16271;DHT22;8243;49.048;8.396;2023-12-20T15:02:59;7.00;99.90
16271;DHT22;8243;49.048;8.396;2023-12-20T15:05:24;7.00;99.90
16271;DHT22;8243;49.048;8.396;2023-12-20T15:07:50;6.90;99.90
16271;DHT22;8243;49.048;8.396;2023-12-20T15:10:16;6.90;99.90
16271;DHT22;8243;49.048;8.396;2023-12-20T15:12:58;6.90;99.90
16271;DHT22;8243;49.048;8.396;2023-12-20T15:15:23;6.90;99.90
16271;DHT22;8243;49.048;8.396;2023-12-20T15:17:50;6.90;99.90
16271;DHT22;8243;49.048;8.396;2023-12-20T15:20:16;6.80;99.90
16271;DHT22;8243;49.048;8.396;2023-12-20T15:22:41;6.80;99.90
16271;DHT22;8243;49.048;8.396;2023-12-20T15:25:10;6.80;99.90
16271;DHT22;8243;49.048;8.396;2023-12-20T15:27:36;6.80;99.90
16271;DHT22;8243;49.048;8.396;2023-12-20T15:30:04;6.80;99.90
16271;DHT22;8243;49.048;8.396;2023-12-20T15:32:30;6.80;99.90
16271;DHT22;8243;49.048;8.396;2023-12-20T15:34:57;6.80;99.90
16271;DHT22;8243;49.048;8.396;2023-12-20T15:37:23;6.80;99.90
16271;DHT22;8243;49.048;8.396;2023-12-20T15:39:51;6.80;99.90
16271;DHT22;8243;49.048;8.396;2023-12-20T15:42:17;6.90;99.90
16271;DHT22;8243;49.048;8.396;2023-12-20T15:44:43;6.90;99.90
16271;DHT22;8243;49.048;8.396;2023-12-20T15:47:08;6.80;99.90
16271;DHT22;8243;49.048;8.396;2023-12-20T15:49:34;6.80;99.90
16271;DHT22;8243;49.048;8.396;2023-12-20T15:52:01;6.90;99.90
16271;DHT22;8243;49.048;8.396;2023-12-20T15:54:27;6.90;99.90
16271;DHT22;8243;49.048;8.396;2023-12-20T15:56:52;6.90;99.90
16271;DHT22;8243;49.048;8.396;2023-12-20T15:59:18;6.80;99.90
16271;DHT22;8243;49.048;8.396;2023-12-20T16:01:44;6.80;99.90